Time;durP1;ratioP1;P1;durP2;ratioP2;P2;SDS_P1;SDS_P2;PMS_P1;PMS_P2;Temp;Humidity;BMP_temperature;BMP_pressure;BME280_temperature;BME280_humidity;BME280_pressure;Samples;Min_cycle;Max_cycle;Signal;HPM_P1;HPM_P2
2022/12/07 00:01:18;;;;;;;0.20;0.20;;;;;;;1.44;100.00;96515.56;4972317;28;20237;-75
2022/12/07 00:04:05;;;;;;;0.20;0.20;;;;;;;1.45;100.00;96511.94;4972148;28;20042;-74
2022/12/07 00:06:52;;;;;;;0.20;0.20;;;;;;;1.54;100.00;96515.25;4970675;28;20042;-75
2022/12/07 00:09:38;;;;;;;0.20;0.20;;;;;;;1.52;100.00;96506.72;4974921;28;20398;-75
2022/12/07 00:12:24;;;;;;;0.20;0.20;;;;;;;1.42;100.00;96508.88;4962079;28;20078;-75
2022/12/07 00:15:10;;;;;;;0.20;0.20;;;;;;;1.48;100.00;96508.09;4975718;28;20050;-75
2022/12/07 00:17:56;;;;;;;0.20;0.20;;;;;;;1.49;100.00;96513.19;4972161;28;20038;-75
2022/12/07 00:20:43;;;;;;;0.20;0.20;;;;;;;1.45;100.00;96509.28;4976324;28;20088;-74
2022/12/07 00:23:29;;;;;;;0.20;0.20;;;;;;;1.48;100.00;96506.28;4975277;28;20934;-74
2022/12/07 00:26:21;;;;;;;0.20;0.20;;;;;;;1.45;100.00;96503.19;4964669;28;20435;-75
2022/12/07 00:29:14;;;;;;;0.20;0.20;;;;;;;1.46;100.00;96495.09;4977264;28;20121;-75
2022/12/07 00:32:00;;;;;;;0.20;0.20;;;;;;;1.54;100.00;96494.97;4975189;28;20050;-76
2022/12/07 00:34:46;;;;;;;0.20;0.20;;;;;;;1.38;100.00;96477.59;4975192;28;20252;-75
2022/12/07 00:37:32;;;;;;;0.20;0.20;;;;;;;1.48;100.00;96486.97;4976012;28;20040;-76
2022/12/07 00:40:18;;;;;;;0.20;0.20;;;;;;;1.45;100.00;96487.38;4965665;28;20108;-74
2022/12/07 00:43:04;;;;;;;0.20;0.20;;;;;;;1.51;100.00;96486.63;4973973;28;20487;-75
2022/12/07 00:45:49;;;;;;;0.20;0.20;;;;;;;1.52;100.00;96482.97;4973341;28;20134;-74
2022/12/07 00:48:35;;;;;;;0.20;0.20;;;;;;;1.52;100.00;96483.78;4974569;28;20054;-74
2022/12/07 00:51:24;;;;;;;0.20;0.20;;;;;;;1.39;100.00;96478.41;4973589;28;20113;-73
2022/12/07 00:54:10;;;;;;;0.20;0.20;;;;;;;1.41;100.00;96480.88;4976185;28;20420;-73
2022/12/07 00:56:55;;;;;;;0.20;0.20;;;;;;;1.27;100.00;96474.66;4967296;28;20141;-73
2022/12/07 00:59:41;;;;;;;0.20;0.20;;;;;;;1.18;100.00;96471.34;4977250;28;20077;-74
2022/12/07 01:02:27;;;;;;;0.20;0.20;;;;;;;1.27;100.00;96474.66;4972809;28;20389;-74
2022/12/07 01:05:13;;;;;;;0.20;0.20;;;;;;;1.34;100.00;96465.81;4976013;28;20068;-73
2022/12/07 01:07:59;;;;;;;0.20;0.20;;;;;;;1.42;100.00;96474.59;4972987;28;20062;-72
2022/12/07 01:10:45;;;;;;;0.20;0.20;;;;;;;1.27;100.00;96459.66;4977835;28;20049;-73
2022/12/07 01:13:33;;;;;;;0.20;0.20;;;;;;;1.24;100.00;96467.94;4972755;28;20062;-71
2022/12/07 01:16:20;;;;;;;0.20;0.20;;;;;;;1.38;100.00;96468.88;4975101;28;20101;-73
2022/12/07 01:19:06;;;;;;;0.20;0.20;;;;;;;1.46;100.00;96465.28;4968750;28;20308;-75
2022/12/07 01:21:54;;;;;;;0.20;0.20;;;;;;;1.50;100.00;96463.91;4971376;28;20076;-74
2022/12/07 01:24:40;;;;;;;0.17;0.17;;;;;;;1.52;100.00;96464.50;4976052;28;20046;-75
2022/12/07 01:27:26;;;;;;;0.30;0.30;;;;;;;1.52;100.00;96462.69;4974705;28;20046;-74
2022/12/07 01:30:13;;;;;;;0.20;0.20;;;;;;;1.47;100.00;96465.06;4976136;28;20046;-74
2022/12/07 01:32:58;;;;;;;0.35;0.30;;;;;;;1.40;100.00;96458.94;4974349;28;20119;-72
2022/12/07 01:35:44;;;;;;;0.32;0.30;;;;;;;1.33;100.00;96460.72;4976664;28;20562;-73
2022/12/07 01:38:31;;;;;;;1.27;0.60;;;;;;;1.30;100.00;96461.91;4973283;28;20612;-75
2022/12/07 01:41:18;;;;;;;0.30;0.30;;;;;;;1.36;100.00;96462.97;4973322;28;20035;-75
2022/12/07 01:44:25;;;;;;;0.35;0.30;;;;;;;1.35;100.00;96464.78;4975216;28;20122;-74
2022/12/07 01:47:11;;;;;;;0.20;0.20;;;;;;;1.32;100.00;96456.44;4973850;28;20379;-74
2022/12/07 01:49:57;;;;;;;0.20;0.20;;;;;;;1.38;100.00;96461.75;4976342;28;20046;-72
2022/12/07 01:52:48;;;;;;;0.20;0.20;;;;;;;1.38;100.00;96456.50;4973945;28;20438;-74
2022/12/07 01:55:38;;;;;;;0.20;0.20;;;;;;;1.48;100.00;96457.97;4978381;28;20626;-73
2022/12/07 01:58:25;;;;;;;0.20;0.20;;;;;;;1.47;100.00;96451.06;4976063;28;20046;-75
2022/12/07 02:01:11;;;;;;;0.20;0.20;;;;;;;1.43;100.00;96449.84;4973575;28;20046;-74
2022/12/07 02:03:58;;;;;;;0.20;0.20;;;;;;;1.46;100.00;96439.72;4975465;28;20382;-74
2022/12/07 02:06:44;;;;;;;0.20;0.20;;;;;;;1.52;100.00;96446.06;4973112;28;20367;-72
2022/12/07 02:09:30;;;;;;;0.20;0.20;;;;;;;1.52;100.00;96435.50;4973674;28;20336;-74
2022/12/07 02:12:16;;;;;;;0.20;0.20;;;;;;;1.52;100.00;96440.78;4973385;28;20132;-74
2022/12/07 02:15:02;;;;;;;0.20;0.20;;;;;;;1.52;100.00;96435.50;4974504;28;20278;-74
2022/12/07 02:18:14;;;;;;;0.65;0.30;;;;;;;1.56;100.00;96432.31;4964555;28;20144;-75
2022/12/07 02:21:32;;;;;;;0.32;0.30;;;;;;;1.53;100.00;96426.56;4975716;28;20351;-72
2022/12/07 02:24:55;;;;;;;0.32;0.30;;;;;;;1.59;100.00;96431.09;4973780;28;20392;-75
2022/12/07 02:28:00;;;;;;;0.80;0.40;;;;;;;1.51;100.00;96425.97;4970557;28;20046;-73
2022/12/07 02:30:50;;;;;;;0.35;0.30;;;;;;;1.52;100.00;96422.31;4974954;28;20323;-75
2022/12/07 02:33:44;;;;;;;0.20;0.20;;;;;;;1.51;100.00;96426.78;4970397;28;20058;-75
2022/12/07 02:36:36;;;;;;;0.25;0.25;;;;;;;1.43;100.00;96426.09;4972393;28;20489;-73
2022/12/07 02:39:52;;;;;;;0.80;0.43;;;;;;;1.48;100.00;96423.69;4959653;28;20049;-73
2022/12/07 02:42:43;;;;;;;1.17;0.60;;;;;;;1.49;100.00;96427.97;4960578;28;20565;-72
2022/12/07 02:45:31;;;;;;;0.90;0.52;;;;;;;1.47;100.00;96427.34;4974369;28;20549;-73
2022/12/07 02:48:19;;;;;;;1.95;0.98;;;;;;;1.47;100.00;96428.16;4973384;28;20168;-74
2022/12/07 02:51:05;;;;;;;1.42;0.80;;;;;;;1.46;100.00;96421.25;4975568;28;20414;-75
2022/12/07 02:53:51;;;;;;;1.85;0.90;;;;;;;1.45;100.00;96424.09;4972364;28;20453;-74
2022/12/07 02:57:12;;;;;;;1.75;0.90;;;;;;;1.41;100.00;96415.75;4973103;28;20037;-75
2022/12/07 03:00:06;;;;;;;1.35;0.65;;;;;;;1.41;100.00;96418.41;4972834;28;20037;-74
2022/12/07 03:03:03;;;;;;;0.73;0.40;;;;;;;1.45;100.00;96421.44;4971629;28;20574;-74
2022/12/07 03:06:31;;;;;;;0.30;0.30;;;;;;;1.43;100.00;96420.84;4972177;28;20073;-73
2022/12/07 03:09:27;;;;;;;0.90;0.45;;;;;;;1.44;100.00;96411.91;4954353;28;20238;-75
2022/12/07 03:12:18;;;;;;;0.25;0.20;;;;;;;1.44;100.00;96419.81;4956620;28;20121;-75
2022/12/07 03:15:11;;;;;;;;;;;;;;;1.45;100.00;96410.91;4973174;28;20144;-77
2022/12/07 03:18:00;;;;;;;0.20;0.20;;;;;;;1.47;100.00;96412.31;4974501;28;20449;-73
2022/12/07 03:20:52;;;;;;;0.93;0.50;;;;;;;1.52;100.00;96411.75;4974290;28;20537;-75
2022/12/07 03:23:44;;;;;;;0.55;0.40;;;;;;;1.52;100.00;96407.31;4970276;28;20129;-75
2022/12/07 03:26:36;;;;;;;0.35;0.30;;;;;;;1.54;100.00;96407.09;4965285;28;20057;-75
2022/12/07 03:29:28;;;;;;;0.30;0.30;;;;;;;1.53;100.00;96402.84;4972197;28;20144;-74
2022/12/07 03:32:23;;;;;;;0.20;0.20;;;;;;;1.57;100.00;96407.56;4963259;28;20236;-75
2022/12/07 03:35:17;;;;;;;0.68;0.40;;;;;;;1.58;100.00;96403.09;4972131;28;20577;-75
2022/12/07 03:38:18;;;;;;;1.98;1.10;;;;;;;1.58;100.00;96403.91;4971763;28;20299;-75
2022/12/07 03:41:11;;;;;;;0.38;0.30;;;;;;;1.56;100.00;96410.38;4974264;28;20050;-74
2022/12/07 03:43:57;;;;;;;1.85;0.98;;;;;;;1.57;100.00;96397.00;4972645;28;20038;-75
2022/12/07 03:46:49;;;;;;;1.52;0.93;;;;;;;1.60;100.00;96395.78;4974695;28;20046;-74
2022/12/07 03:49:58;;;;;;;0.38;0.32;;;;;;;1.57;100.00;96404.09;4975413;28;20096;-75
2022/12/07 03:53:11;;;;;;;1.95;1.10;;;;;;;1.59;100.00;96404.72;4976183;28;20530;-76
2022/12/07 03:55:58;;;;;;;2.13;1.27;;;;;;;1.58;100.00;96403.09;4979712;28;20419;-76
2022/12/07 03:58:45;;;;;;;2.78;1.70;;;;;;;1.60;100.00;96407.16;4976101;28;20049;-75
2022/12/07 04:01:31;;;;;;;2.92;1.90;;;;;;;1.55;100.00;96400.81;4976302;28;20332;-75
2022/12/07 04:04:17;;;;;;;1.65;1.00;;;;;;;1.61;100.00;96400.06;4963829;28;20332;-76
2022/12/07 04:07:03;;;;;;;1.70;1.02;;;;;;;1.58;100.00;96400.44;4975205;28;20423;-75
2022/12/07 04:09:49;;;;;;;4.85;3.63;;;;;;;1.60;100.00;96391.31;4976339;28;20789;-75
2022/12/07 04:12:35;;;;;;;4.03;2.90;;;;;;;1.63;100.00;96403.31;4974373;28;20253;-75
2022/12/07 04:15:21;;;;;;;5.03;3.38;;;;;;;1.69;100.00;96397.25;4974853;28;20046;-74
2022/12/07 04:18:07;;;;;;;4.18;2.85;;;;;;;1.68;100.00;96393.81;4974486;28;20259;-75
2022/12/07 04:20:53;;;;;;;2.28;1.42;;;;;;;1.71;100.00;96391.78;4977489;28;20139;-75
2022/12/07 04:23:39;;;;;;;4.40;3.03;;;;;;;1.71;100.00;96394.41;4976222;28;20042;-75
2022/12/07 04:26:25;;;;;;;2.83;2.05;;;;;;;1.67;100.00;96397.47;4966719;28;20052;-73
2022/12/07 04:29:11;;;;;;;2.53;1.70;;;;;;;1.66;100.00;96401.09;4974380;28;20074;-77
2022/12/07 04:31:57;;;;;;;0.20;0.20;;;;;;;1.61;100.00;96392.13;4959071;28;20050;-74
2022/12/07 04:34:43;;;;;;;0.20;0.20;;;;;;;1.62;100.00;96399.84;4975059;28;20042;-76
2022/12/07 04:37:28;;;;;;;0.22;0.20;;;;;;;1.68;100.00;96398.28;4972056;28;20460;-75
2022/12/07 04:40:14;;;;;;;0.20;0.20;;;;;;;1.67;100.00;96391.38;4975172;28;20293;-76
2022/12/07 04:43:00;;;;;;;0.20;0.20;;;;;;;1.69;100.00;96394.63;4962705;28;20050;-75
2022/12/07 04:45:47;;;;;;;0.13;0.13;;;;;;;1.65;100.00;96388.94;4973319;28;20746;-75
2022/12/07 04:48:33;;;;;;;0.20;0.20;;;;;;;1.68;100.00;96393.00;4973974;28;20672;-75
2022/12/07 04:51:22;;;;;;;0.20;0.20;;;;;;;1.71;100.00;96392.59;4975360;28;20038;-76
2022/12/07 04:54:08;;;;;;;0.20;0.20;;;;;;;1.67;100.00;96392.19;4966988;28;20325;-75
2022/12/07 04:56:54;;;;;;;0.20;0.20;;;;;;;1.71;100.00;96382.03;4975689;28;20038;-75
2022/12/07 04:59:39;;;;;;;0.10;0.10;;;;;;;1.62;100.00;96370.03;4973063;28;20050;-75
2022/12/07 05:02:25;;;;;;;0.30;0.30;;;;;;;1.77;100.00;96389.19;4973316;28;20172;-74
2022/12/07 05:05:11;;;;;;;0.57;0.38;;;;;;;1.77;100.00;96391.00;4963905;28;20148;-74
2022/12/07 05:07:57;;;;;;;0.70;0.47;;;;;;;1.76;100.00;96390.19;4975378;28;20092;-74
2022/12/07 05:10:43;;;;;;;1.00;0.52;;;;;;;1.78;100.00;96382.91;4975225;28;20053;-74
2022/12/07 05:13:29;;;;;;;1.17;0.63;;;;;;;1.76;100.00;96386.75;4975176;28;20248;-74
2022/12/07 05:16:15;;;;;;;0.98;0.55;;;;;;;1.79;100.00;96387.19;4970221;28;20503;-75
2022/12/07 05:19:00;;;;;;;1.60;1.00;;;;;;;1.75;100.00;96395.69;4972772;28;20096;-73
2022/12/07 05:21:47;;;;;;;0.32;0.30;;;;;;;1.71;100.00;96394.41;4973822;28;20049;-74
2022/12/07 05:24:32;;;;;;;0.43;0.30;;;;;;;1.73;100.00;96390.59;4959905;28;20561;-74
2022/12/07 05:27:18;;;;;;;0.20;0.20;;;;;;;1.69;100.00;96391.97;4979606;28;20125;-76
2022/12/07 05:30:05;;;;;;;0.20;0.20;;;;;;;1.69;100.00;96397.25;4976245;28;20305;-76
2022/12/07 05:32:51;;;;;;;0.20;0.20;;;;;;;1.67;100.00;96392.19;4972887;28;20055;-75
2022/12/07 05:35:37;;;;;;;0.17;0.17;;;;;;;1.68;100.00;96398.28;4975725;28;20177;-76
2022/12/07 05:38:24;;;;;;;0.10;0.10;;;;;;;1.71;100.00;96395.22;4973718;28;20050;-76
2022/12/07 05:44:21;;;;;;;0.20;0.20;;;;;;;1.71;100.00;96389.97;4974302;28;20077;-76
2022/12/07 05:47:07;;;;;;;0.60;0.40;;;;;;;1.72;100.00;96396.88;4975103;28;20042;-75
2022/12/07 05:49:53;;;;;;;1.00;0.52;;;;;;;1.75;100.00;96395.69;4976137;28;20038;-75
2022/12/07 05:52:41;;;;;;;1.13;0.70;;;;;;;1.72;100.00;96399.53;4973446;28;20137;-75
2022/12/07 05:55:27;;;;;;;0.20;0.20;;;;;;;1.62;100.00;96399.03;4976104;28;20332;-75
2022/12/07 06:01:17;;;;;;;0.20;0.20;;;;;;;1.72;100.00;96406.63;4975075;28;20053;-76
2022/12/07 06:04:03;;;;;;;0.10;0.10;;;;;;;1.74;100.00;96407.25;4974168;28;20438;-73
2022/12/07 06:06:50;;;;;;;0.20;0.20;;;;;;;1.83;100.00;96398.97;4974791;28;20328;-74
2022/12/07 06:09:36;;;;;;;0.20;0.20;;;;;;;1.90;100.00;96406.91;4963689;28;20037;-74
2022/12/07 06:12:34;;;;;;;0.20;0.20;;;;;;;1.89;100.00;96395.56;4967463;28;20088;-76
2022/12/07 06:15:20;;;;;;;0.20;0.20;;;;;;;1.90;100.00;96402.47;4960909;28;20085;-75
2022/12/07 06:18:06;;;;;;;0.20;0.20;;;;;;;1.93;100.00;96399.41;4962577;28;20034;-73
2022/12/07 06:20:51;;;;;;;0.20;0.20;;;;;;;1.82;100.00;96394.69;4972585;28;20080;-75
2022/12/07 06:23:37;;;;;;;0.20;0.20;;;;;;;1.79;100.00;96405.66;4972343;28;20060;-76
2022/12/07 06:26:23;;;;;;;0.10;0.10;;;;;;;1.81;100.00;96408.91;4972777;28;20050;-72
2022/12/07 06:29:10;;;;;;;0.20;0.20;;;;;;;1.71;100.00;96403.16;4972701;28;20042;-74
2022/12/07 06:31:56;;;;;;;0.20;0.20;;;;;;;1.75;100.00;96412.31;4972672;28;20497;-74
2022/12/07 06:34:42;;;;;;;0.20;0.20;;;;;;;1.80;100.00;96417.84;4972593;28;20038;-75
2022/12/07 06:37:28;;;;;;;0.20;0.20;;;;;;;1.78;100.00;96417.19;4972546;28;20620;-75
2022/12/07 06:40:14;;;;;;;0.20;0.20;;;;;;;1.79;100.00;96425.94;4964511;28;20042;-74
2022/12/07 06:43:00;;;;;;;0.20;0.20;;;;;;;1.69;100.00;96423.63;4958193;28;20107;-75
2022/12/07 06:45:46;;;;;;;0.20;0.20;;;;;;;1.73;100.00;96422.25;4974817;28;20586;-75
2022/12/07 06:48:32;;;;;;;0.20;0.20;;;;;;;1.69;100.00;96410.44;4973068;28;20061;-75
2022/12/07 06:51:18;;;;;;;0.20;0.20;;;;;;;1.69;100.00;96423.63;4966520;28;20074;-76
2022/12/07 06:54:04;;;;;;;0.20;0.20;;;;;;;1.68;100.00;96422.00;4972884;28;20513;-75
2022/12/07 06:56:50;;;;;;;0.20;0.20;;;;;;;1.69;100.00;96426.28;4959983;28;20152;-77
2022/12/07 06:59:36;;;;;;;0.20;0.20;;;;;;;1.75;100.00;96424.69;4974661;28;20338;-76
2022/12/07 07:02:22;;;;;;;0.20;0.20;;;;;;;1.77;100.00;96428.75;4969012;28;20093;-75
2022/12/07 07:05:08;;;;;;;0.20;0.20;;;;;;;1.76;100.00;96421.03;4973401;28;20046;-74
2022/12/07 07:07:53;;;;;;;0.20;0.20;;;;;;;1.84;100.00;96428.81;4973600;28;20740;-73
2022/12/07 07:10:42;;;;;;;0.20;0.20;;;;;;;1.80;100.00;96422.31;4977718;28;20597;-75
2022/12/07 07:13:28;;;;;;;0.20;0.20;;;;;;;1.85;100.00;96430.44;4972983;28;20503;-74
2022/12/07 07:16:14;;;;;;;0.20;0.20;;;;;;;1.82;100.00;96431.66;4973340;28;20374;-73
2022/12/07 07:19:00;;;;;;;0.20;0.20;;;;;;;1.82;100.00;96426.38;4961084;28;20053;-75
2022/12/07 07:21:45;;;;;;;0.20;0.20;;;;;;;1.86;100.00;96437.34;4974531;28;20053;-76
2022/12/07 07:24:31;;;;;;;0.20;0.20;;;;;;;1.84;100.00;96434.91;4982182;28;20041;-73
2022/12/07 07:27:17;;;;;;;0.20;0.20;;;;;;;1.80;100.00;96432.84;4981819;28;20588;-73
2022/12/07 07:30:04;;;;;;;0.20;0.20;;;;;;;1.75;100.00;96430.78;4983796;28;20049;-74
2022/12/07 07:32:50;;;;;;;0.20;0.20;;;;;;;1.79;100.00;96433.84;4617906;28;10000400;-75
2022/12/07 07:35:36;;;;;;;0.20;0.20;;;;;;;1.80;100.00;96436.31;4979623;28;20042;-75
2022/12/07 07:38:22;;;;;;;0.20;0.20;;;;;;;1.76;100.00;96432.41;4978954;28;20328;-72
2022/12/07 07:41:08;;;;;;;0.20;0.20;;;;;;;1.69;100.00;96421.00;4978613;28;20816;-74
2022/12/07 07:43:54;;;;;;;0.20;0.20;;;;;;;1.79;100.00;96434.69;4976916;28;20041;-71
2022/12/07 07:46:40;;;;;;;0.20;0.20;;;;;;;1.80;100.00;96438.94;4978854;28;20097;-74
2022/12/07 07:49:26;;;;;;;0.20;0.20;;;;;;;1.79;100.00;96439.13;4977409;28;20755;-75
2022/12/07 07:52:12;;;;;;;0.20;0.20;;;;;;;1.81;100.00;96442.41;4976080;28;20085;-76
2022/12/07 07:54:58;;;;;;;0.20;0.20;;;;;;;1.79;100.00;96437.31;4979765;28;20239;-75
2022/12/07 07:57:43;;;;;;;0.20;0.20;;;;;;;1.75;100.00;96440.53;4977670;28;20065;-74
2022/12/07 08:00:29;;;;;;;0.20;0.20;;;;;;;1.73;100.00;96430.19;4977408;28;20546;-75
2022/12/07 08:03:15;;;;;;;0.10;0.10;;;;;;;1.73;100.00;96438.09;4976864;28;20496;-75
2022/12/07 08:06:03;;;;;;;0.20;0.20;;;;;;;1.75;100.00;96438.72;4977277;28;20042;-73
2022/12/07 08:08:49;;;;;;;0.20;0.20;;;;;;;1.77;100.00;96441.94;4976188;28;20041;-74
2022/12/07 08:11:36;;;;;;;0.20;0.20;;;;;;;1.76;100.00;96434.25;4978173;28;20181;-75
2022/12/07 08:14:22;;;;;;;0.20;0.20;;;;;;;1.80;100.00;96441.59;4979810;28;20046;-73
2022/12/07 08:17:08;;;;;;;0.20;0.20;;;;;;;1.84;100.00;96423.53;4976164;28;20038;-75
2022/12/07 08:19:53;;;;;;;0.20;0.20;;;;;;;1.86;100.00;96432.06;4965606;28;20040;-73
2022/12/07 08:22:40;;;;;;;0.20;0.20;;;;;;;1.92;100.00;96426.81;4976094;28;20041;-74
2022/12/07 08:25:26;;;;;;;0.20;0.20;;;;;;;2.04;100.00;96428.94;4982483;28;20046;-74
2022/12/07 08:28:12;;;;;;;0.10;0.10;;;;;;;1.97;100.00;96438.63;4978483;28;20045;-78
2022/12/07 08:31:00;;;;;;;0.20;0.20;;;;;;;1.83;100.00;96428.00;4981957;28;20046;-74
2022/12/07 08:33:47;;;;;;;0.20;0.20;;;;;;;1.90;100.00;96433.31;4979486;28;20973;-74
2022/12/07 08:36:33;;;;;;;0.20;0.20;;;;;;;1.91;100.00;96435.75;4977448;28;20574;-76
2022/12/07 08:39:19;;;;;;;0.20;0.20;;;;;;;1.86;100.00;96437.34;4968402;28;20629;-76
2022/12/07 08:42:05;;;;;;;0.15;0.15;;;;;;;1.93;100.00;96438.19;4966954;28;21006;-76
2022/12/07 08:44:50;;;;;;;0.20;0.20;;;;;;;1.97;100.00;96450.00;4977819;28;20478;-76
2022/12/07 08:47:54;;;;;;;0.20;0.20;;;;;;;1.93;100.00;96444.28;4976601;28;20038;-76
2022/12/07 08:50:40;;;;;;;0.20;0.20;;;;;;;1.93;100.00;96444.28;4978302;28;20041;-75
2022/12/07 08:53:30;;;;;;;0.10;0.10;;;;;;;1.89;100.00;96445.69;4976353;28;20696;-75
2022/12/07 08:56:16;;;;;;;0.13;0.13;;;;;;;1.92;100.00;96441.84;4978942;28;20157;-74
2022/12/07 08:59:03;;;;;;;0.20;0.20;;;;;;;1.98;100.00;96446.34;4976383;28;20131;-74
2022/12/07 09:01:49;;;;;;;0.20;0.20;;;;;;;2.09;100.00;96452.91;4974123;28;20038;-77
2022/12/07 09:04:35;;;;;;;0.20;0.20;;;;;;;2.24;100.00;96450.94;4966806;28;20054;-76
2022/12/07 09:07:21;;;;;;;0.20;0.20;;;;;;;2.41;100.00;96440.84;4965012;28;20053;-76
2022/12/07 09:10:08;;;;;;;0.20;0.20;;;;;;;2.41;100.00;96435.56;4979942;28;20099;-76
2022/12/07 09:12:54;;;;;;;0.22;0.22;;;;;;;2.29;100.00;96432.69;4963842;28;20053;-76
2022/12/07 09:15:40;;;;;;;0.20;0.20;;;;;;;2.53;100.00;96449.84;4978007;28;20103;-77
2022/12/07 09:18:26;;;;;;;0.20;0.20;;;;;;;2.67;100.00;96445.44;4951557;28;20819;-76
2022/12/07 09:21:11;;;;;;;0.20;0.20;;;;;;;2.61;100.00;96451.50;4975229;28;20574;-76
2022/12/07 09:23:57;;;;;;;0.20;0.20;;;;;;;2.54;100.00;96458.59;4977211;28;20046;-76
2022/12/07 09:26:44;;;;;;;0.20;0.20;;;;;;;2.58;100.00;96457.19;4975545;28;20095;-76
2022/12/07 09:29:32;;;;;;;0.20;0.20;;;;;;;2.43;100.00;96455.50;4974332;28;20241;-74
2022/12/07 09:32:18;;;;;;;0.10;0.10;;;;;;;2.36;100.00;96451.22;4965538;28;20378;-75
2022/12/07 09:35:04;;;;;;;0.20;0.20;;;;;;;2.42;100.00;96453.88;4974821;28;20114;-74
2022/12/07 09:37:50;;;;;;;0.20;0.20;;;;;;;2.31;100.00;96445.69;4967294;28;20069;-76
2022/12/07 09:40:36;;;;;;;0.13;0.13;;;;;;;2.21;100.00;96446.88;4966591;28;20732;-75
2022/12/07 09:43:24;;;;;;;0.20;0.20;;;;;;;2.23;100.00;96446.69;4973103;28;20344;-75
2022/12/07 09:46:16;;;;;;;0.20;0.20;;;;;;;2.27;100.00;96445.28;4975321;28;20657;-76
2022/12/07 09:49:02;;;;;;;;;;;;;;;2.39;100.00;96448.16;4976882;28;20045;-76
2022/12/07 09:52:08;;;;;;;0.20;0.20;;;;;;;2.34;100.00;96454.06;4974896;28;20064;-76
2022/12/07 09:54:54;;;;;;;0.20;0.20;;;;;;;2.25;100.00;96444.66;4977075;28;20119;-74
2022/12/07 09:57:41;;;;;;;0.20;0.20;;;;;;;2.20;100.00;96441.78;4975343;28;20359;-76
2022/12/07 10:00:28;;;;;;;0.20;0.20;;;;;;;2.13;100.00;96440.94;4974420;28;20050;-76
2022/12/07 10:03:14;;;;;;;0.20;0.20;;;;;;;2.17;100.00;96442.16;4967936;28;20077;-77
2022/12/07 10:06:00;;;;;;;0.20;0.20;;;;;;;2.23;100.00;96428.19;4963927;28;20042;-74
2022/12/07 10:08:46;;;;;;;0.20;0.20;;;;;;;2.28;100.00;96428.44;4967777;28;20046;-77
2022/12/07 10:11:32;;;;;;;0.20;0.20;;;;;;;2.34;100.00;96429.47;4975051;28;20042;-76
2022/12/07 10:14:17;;;;;;;0.13;0.13;;;;;;;2.44;100.00;96428.09;4962527;28;20034;-77
2022/12/07 10:17:34;;;;;;;0.17;0.17;;;;;;;2.43;100.00;96423.81;4976691;28;20530;-76
2022/12/07 10:20:26;;;;;;;0.20;0.20;;;;;;;2.48;100.00;96418.72;4960921;28;20058;-75
2022/12/07 10:23:18;;;;;;;0.20;0.20;;;;;;;2.58;100.00;96420.22;4976764;28;20042;-77
2022/12/07 10:26:30;;;;;;;0.10;0.10;;;;;;;2.56;100.00;96416.94;4979081;28;20065;-77
2022/12/07 10:29:18;;;;;;;;;;;;;;;2.44;100.00;96411.41;4977571;28;20069;-76
2022/12/07 10:32:33;;;;;;;0.10;0.10;;;;;;;2.30;100.00;96418.47;4973613;28;20016;-75
2022/12/07 10:35:26;;;;;;;0.20;0.20;;;;;;;2.16;100.00;96411.50;4950636;28;20054;-74
2022/12/07 10:38:19;;;;;;;0.20;0.20;;;;;;;2.22;100.00;96418.66;4973419;28;20481;-77
2022/12/07 10:41:07;;;;;;;0.20;0.20;;;;;;;2.20;100.00;96404.84;4973123;28;20038;-77
2022/12/07 10:43:56;;;;;;;0.20;0.20;;;;;;;2.06;100.00;96401.31;4973873;28;20041;-76
2022/12/07 10:47:01;;;;;;;0.20;0.20;;;;;;;2.11;100.00;96408.66;4958495;28;20049;-76
2022/12/07 10:50:14;;;;;;;0.20;0.20;;;;;;;2.16;100.00;96404.41;4974367;28;20088;-77
2022/12/07 10:53:00;;;;;;;0.20;0.20;;;;;;;2.14;100.00;96408.25;4975955;28;20053;-76
2022/12/07 10:55:45;;;;;;;0.10;0.10;;;;;;;2.05;100.00;96398.88;4977749;28;20058;-76
2022/12/07 10:58:40;;;;;;;0.20;0.20;;;;;;;2.35;100.00;96399.41;4971044;28;20038;-77
2022/12/07 11:01:38;;;;;;;0.22;0.20;;;;;;;2.44;100.00;96388.47;4973163;28;20042;-75
2022/12/07 11:04:58;;;;;;;0.20;0.20;;;;;;;2.51;100.00;96389.28;4973734;28;20042;-76
2022/12/07 11:07:52;;;;;;;0.20;0.20;;;;;;;2.83;100.00;96386.91;4973399;28;20038;-75
2022/12/07 11:11:06;;;;;;;0.20;0.20;;;;;;;3.31;100.00;96384.91;4962062;28;20473;-77
2022/12/07 11:14:01;;;;;;;0.20;0.20;;;;;;;3.86;100.00;96392.53;4962781;28;20048;-77
2022/12/07 11:17:04;;;;;;;0.20;0.20;;;;;;;3.29;100.00;96391.41;4970283;28;20073;-76
2022/12/07 11:20:00;;;;;;;0.20;0.20;;;;;;;2.96;100.00;96392.22;4962947;28;20038;-77
2022/12/07 11:23:16;;;;;;;0.20;0.20;;;;;;;2.61;100.00;96382.81;4976073;28;20040;-75
2022/12/07 11:26:18;;;;;;;0.10;0.10;;;;;;;2.43;100.00;96378.09;4962183;28;20129;-77
2022/12/07 11:29:40;;;;;;;0.20;0.20;;;;;;;2.43;100.00;96375.47;4975352;28;20460;-75
2022/12/07 11:32:51;;;;;;;0.20;0.20;;;;;;;2.48;100.00;96380.94;4971485;28;20062;-73
2022/12/07 11:35:56;;;;;;;;;;;;;;;2.52;100.00;96371.63;4943953;28;20046;-76
2022/12/07 11:38:54;;;;;;;0.20;0.20;;;;;;;2.60;100.00;96370.63;4881610;28;10001254;-76
2022/12/07 11:41:42;;;;;;;0.30;0.30;;;;;;;3.19;100.00;96364.53;4616006;28;10000776;-76
2022/12/07 11:44:40;;;;;;;0.20;0.20;;;;;;;3.52;100.00;96360.06;4969364;28;20266;-76
2022/12/07 11:47:45;;;;;;;0.20;0.20;;;;;;;4.65;100.00;96351.66;4970609;28;20065;-77
2022/12/07 11:50:36;;;;;;;0.22;0.22;;;;;;;4.72;100.00;96352.41;4972343;28;20085;-76
2022/12/07 11:53:26;;;;;;;0.10;0.10;;;;;;;3.72;100.00;96348.59;4970789;28;20813;-76
2022/12/07 11:56:15;;;;;;;0.20;0.20;;;;;;;3.22;100.00;96349.09;4963364;28;20600;-77
2022/12/07 11:59:27;;;;;;;0.20;0.20;;;;;;;3.36;100.00;96355.19;4974090;28;20048;-77
2022/12/07 12:02:18;;;;;;;0.20;0.20;;;;;;;3.94;100.00;96347.31;4963244;28;20327;-77
2022/12/07 12:05:10;;;;;;;0.20;0.20;;;;;;;3.62;100.00;96341.09;4961838;28;20355;-77
2022/12/07 12:08:19;;;;;;;0.20;0.20;;;;;;;3.43;100.00;96336.69;4974210;28;20128;-75
2022/12/07 12:11:29;;;;;;;0.20;0.20;;;;;;;3.30;100.00;96334.84;4980308;28;20485;-76
2022/12/07 12:14:44;;;;;;;0.20;0.20;;;;;;;3.20;100.00;96334.47;4977096;28;20589;-75
2022/12/07 12:18:00;;;;;;;0.20;0.20;;;;;;;3.07;100.00;96325.50;4973496;28;20058;-76
2022/12/07 12:20:56;;;;;;;0.20;0.20;;;;;;;2.85;100.00;96331.22;4966446;28;20038;-75
2022/12/07 12:23:57;;;;;;;0.20;0.20;;;;;;;2.67;100.00;96339.75;4976926;28;20125;-77
2022/12/07 12:26:54;;;;;;;0.20;0.20;;;;;;;2.50;100.00;96341.94;4980044;28;20328;-77
2022/12/07 12:29:42;;;;;;;0.20;0.20;;;;;;;2.42;100.00;96331.56;4980318;28;20092;-75
2022/12/07 12:32:40;;;;;;;0.20;0.20;;;;;;;2.32;100.00;96331.94;4976093;28;20596;-76
2022/12/07 12:35:33;;;;;;;0.20;0.20;;;;;;;2.37;100.00;96328.72;4978618;28;20648;-75
2022/12/07 12:38:27;;;;;;;0.20;0.20;;;;;;;2.36;100.00;96327.91;4976439;28;20503;-77
2022/12/07 12:41:36;;;;;;;0.30;0.30;;;;;;;2.93;100.00;96323.88;4978716;28;20042;-77
2022/12/07 12:44:22;;;;;;;0.20;0.20;;;;;;;3.76;100.00;96318.88;4978589;28;20130;-77
2022/12/07 12:47:49;;;;;;;0.20;0.20;;;;;;;4.02;100.00;96323.25;4979580;28;20239;-77
2022/12/07 12:50:37;;;;;;;0.20;0.20;;;;;;;4.65;100.00;96323.31;4955596;28;20441;-74
2022/12/07 12:53:25;;;;;;;0.20;0.20;;;;;;;4.71;100.00;96322.47;4975207;28;20105;-77
2022/12/07 12:56:26;;;;;;;0.20;0.20;;;;;;;4.69;100.00;96319.22;4979006;28;20691;-76
2022/12/07 12:59:29;;;;;;;0.20;0.20;;;;;;;5.24;100.00;96327.34;4977714;28;20038;-76
2022/12/07 13:02:26;;;;;;;0.10;0.10;;;;;;;4.91;100.00;96308.25;4969406;28;20042;-76
2022/12/07 13:05:12;;;;;;;0.20;0.20;;;;;;;4.85;100.00;96317.06;4976837;28;20442;-77
2022/12/07 13:08:02;;;;;;;0.20;0.20;;;;;;;4.92;100.00;96309.88;4967412;28;20048;-75
2022/12/07 13:10:48;;;;;;;0.20;0.20;;;;;;;4.55;100.00;96298.31;4971256;28;20187;-74
2022/12/07 13:13:35;;;;;;;0.13;0.13;;;;;;;4.25;100.00;96296.25;4973228;28;20050;-76
2022/12/07 13:16:21;;;;;;;0.20;0.20;;;;;;;4.21;100.00;96289.75;4978798;28;20958;-75
2022/12/07 13:19:46;;;;;;;0.20;0.20;;;;;;;3.79;100.00;96291.16;4975966;28;20038;-76
2022/12/07 13:22:37;;;;;;;0.20;0.20;;;;;;;3.64;100.00;96284.28;4973221;28;20661;-78
2022/12/07 13:25:33;;;;;;;0.20;0.20;;;;;;;3.50;100.00;96295.13;4980075;28;20513;-77
2022/12/07 13:28:21;;;;;;;0.20;0.20;;;;;;;3.21;100.00;96286.66;4978513;28;20046;-75
2022/12/07 13:31:16;;;;;;;0.20;0.20;;;;;;;3.25;100.00;96289.69;4981704;28;20950;-77